Time;durP1;ratioP1;P1;durP2;ratioP2;P2;SDS_P1;SDS_P2;PMS_P1;PMS_P2;Temp;Humidity;BMP_temperature;BMP_pressure;BME280_temperature;BME280_humidity;BME280_pressure;Samples;Min_cycle;Max_cycle;Signal;HPM_P1;HPM_P2
2023/09/15 00:00:36;;;;;;;;;;;;;;;;;;5112154;27;19912;-69
2023/09/15 00:03:02;;;;;;;;;;;;;;;;;;5111466;28;19919;-69
2023/09/15 00:06:00;;;;;;;;;;;;;;;;;;5111915;27;19916;-69
2023/09/15 00:08:27;;;;;;;;;;;;;;;;;;5111729;28;20007;-68
2023/09/15 00:10:52;;;;;;;;;;;;;;;;;;5111237;28;19908;-68
2023/09/15 00:16:04;;;;;;;;;;;;;;;;;;5091300;27;19913;-70
2023/09/15 00:18:30;;;;;;;;;;;;;;;;;;5090105;28;20285;-69
2023/09/15 00:20:56;;;;;;;;;;;;;;;;;;5091364;28;20003;-69
2023/09/15 00:23:39;;;;;;;;;;;;;;;;;;5111771;27;19919;-68
2023/09/15 00:26:05;;;;;;;;;;;;;;;;;;5111700;28;19973;-70
2023/09/15 00:28:31;;;;;;;;;;;;;;;;;;5111616;28;19908;-68
2023/09/15 00:30:57;;;;;;;;;;;;;;;;;;5111372;28;19915;-68
2023/09/15 00:33:23;;;;;;;;;;;;;;;;;;5111936;28;19950;-68
2023/09/15 00:35:49;;;;;;;;;;;;;;;;;;5111510;28;19908;-68
2023/09/15 00:38:15;;;;;;;;;;;;;;;;;;5111205;28;19908;-69
2023/09/15 00:40:41;;;;;;;;;;;;;;;;;;5110147;28;19920;-69
2023/09/15 00:43:07;;;;;;;;;;;;;;;;;;5111371;28;19916;-69
2023/09/15 00:47:27;;;;;;;;;;;;;;;;;;5071489;28;19923;-69
2023/09/15 00:49:54;;;;;;;;;;;;;;;;;;5071197;28;20351;-68
2023/09/15 00:55:04;;;;;;;;;;;;;;;;;;5112044;27;19916;-69
2023/09/15 00:57:30;;;;;;;;;;;;;;;;;;5112106;28;20440;-69
2023/09/15 00:59:56;;;;;;;;;;;;;;;;;;5111203;28;19998;-68
2023/09/15 01:02:23;;;;;;;;;;;;;;;;;;5110382;28;19908;-69
2023/09/15 01:04:49;;;;;;;;;;;;;;;;;;5111111;28;19908;-69
2023/09/15 01:09:25;;;;;;;;;;;;;;;;;;5112293;27;19912;-69
2023/09/15 01:13:59;;;;;;;;;;;;;;;;;;5091004;27;20299;-69
2023/09/15 01:17:42;;;;;;;;;;;;;;;;;;5112207;27;19916;-68
2023/09/15 01:20:09;;;;;;;;;;;;;;;;;;5111358;28;19912;-68
2023/09/15 01:36:09;;;;;;;;;;;;;;;;;;5112386;27;20384;-68
2023/09/15 01:38:35;;;;;;;;;;;;;;;;;;5111744;28;20011;-69
2023/09/15 01:41:01;;;;;;;;;;;;;;;;;;5111299;28;20413;-68
2023/09/15 01:44:41;;;;;;;;;;;;;;;;;;5091952;27;19916;-68
2023/09/15 01:47:08;;;;;;;;;;;;;;;;;;5089775;28;20006;-68
2023/09/15 01:50:28;;;;;;;;;;;;;;;;;;5092217;27;20266;-68
2023/09/15 01:53:35;;;;;;;;;;;;;;;;;;5112450;27;19916;-68
2023/09/15 01:56:01;;;;;;;;;;;;;;;;;;5111428;28;20380;-68
2023/09/15 01:58:27;;;;;;;;;;;;;;;;;;5111609;28;19919;-69
2023/09/15 02:00:53;;;;;;;;;;;;;;;;;;5111859;28;20359;-68
2023/09/15 02:03:19;;;;;;;;;;;;;;;;;;5111250;28;19955;-69
2023/09/15 02:06:16;;;;;;;;;;;;;;;;;;5112469;27;19916;-68
2023/09/15 02:08:43;;;;;;;;;;;;;;;;;;5111419;28;19912;-68
2023/09/15 02:11:31;;;;;;;;;;;;;;;;;;5112599;27;19916;-68
2023/09/15 02:13:57;;;;;;;;;;;;;;;;;;5111748;28;20042;-69
2023/09/15 02:16:24;;;;;;;;;;;;;;;;;;5111276;28;19907;-69
2023/09/15 02:18:50;;;;;;;;;;;;;;;;;;5111543;28;19912;-69
2023/09/15 02:23:33;;;;;;;;;;;;;;;;;;5091197;27;20288;-68
2023/09/15 02:25:58;;;;;;;;;;;;;;;;;;5091365;28;20011;-69
2023/09/15 02:29:59;;;;;;;;;;;;;;;;;;5091475;27;20279;-68
2023/09/15 02:33:50;;;;;;;;;;;;;;;;;;5112244;27;19918;-69
2023/09/15 02:41:06;;;;;;;;;;;;;;;;;;5111800;27;19922;-69
2023/09/15 02:47:10;;;;;;;;;;;;;;;;;;5111751;27;19916;-69
2023/09/15 02:49:36;;;;;;;;;;;;;;;;;;5111759;28;20007;-69
2023/09/15 02:53:40;;;;;;;;;;;;;;;;;;5112035;27;19916;-69
2023/09/15 02:56:07;;;;;;;;;;;;;;;;;;5111751;28;20000;-69
2023/09/15 02:58:33;;;;;;;;;;;;;;;;;;5109936;28;20435;-69
2023/09/15 03:00:59;;;;;;;;;;;;;;;;;;5110649;28;20246;-69
2023/09/15 03:03:25;;;;;;;;;;;;;;;;;;5111548;28;19930;-69
2023/09/15 03:05:51;;;;;;;;;;;;;;;;;;5111251;28;19908;-69
2023/09/15 03:08:17;;;;;;;;;;;;;;;;;;5111458;28;19912;-69
2023/09/15 03:12:56;;;;;;;;;;;;;;;;;;5111501;27;19922;-68
2023/09/15 03:16:42;;;;;;;;;;;;;;;;;;5112007;27;19916;-71
2023/09/15 03:19:08;;;;;;;;;;;;;;;;;;5111357;28;19957;-69
2023/09/15 03:21:33;;;;;;;;;;;;;;;;;;5111635;28;19912;-68
2023/09/15 03:23:59;;;;;;;;;;;;;;;;;;5111655;28;19908;-68
2023/09/15 03:28:12;;;;;;;;;;;;;;;;;;5111965;27;20010;-68
2023/09/15 03:30:38;;;;;;;;;;;;;;;;;;5111789;28;20402;-68
2023/09/15 03:33:18;;;;;;;;;;;;;;;;;;5111851;27;19916;-70
2023/09/15 03:35:44;;;;;;;;;;;;;;;;;;5111769;28;20026;-70
2023/09/15 03:38:56;;;;;;;;;;;;;;;;;;5112639;27;19916;-70
2023/09/15 03:43:52;;;;;;;;;;;;;;;;;;5152998;27;20005;-68
2023/09/15 03:46:18;;;;;;;;;;;;;;;;;;5152838;27;20425;-68
2023/09/15 03:53:27;;;;;;;;;;;;;;;;;;5111894;27;19916;-68
2023/09/15 03:56:24;;;;;;;;;;;;;;;;;;5111039;27;19916;-69
2023/09/15 03:58:51;;;;;;;;;;;;;;;;;;5105911;28;19912;-70
2023/09/15 04:01:21;;;;;;;;;;;;;;;;;;5088794;28;19908;-68
2023/09/15 04:03:47;;;;;;;;;;;;;;;;;;5089125;28;19995;-69
2023/09/15 04:08:51;;;;;;;;;;;;;;;;;;5109118;27;20315;-68
2023/09/15 04:13:12;;;;;;;;;;;;;;;;;;5109482;27;19922;-69
2023/09/15 04:17:22;;;;;;;;;;;;;;;;;;5089162;27;19923;-68
2023/09/15 04:19:48;;;;;;;;;;;;;;;;;;5087949;28;20279;-68
2023/09/15 04:22:14;;;;;;;;;;;;;;;;;;5075016;28;19913;-69
2023/09/15 04:26:24;;;;;;;;;;;;;;;;;;5110184;27;19920;-69
2023/09/15 04:28:50;;;;;;;;;;;;;;;;;;5111106;28;20456;-69
2023/09/15 04:31:16;;;;;;;;;;;;;;;;;;5110279;28;19914;-69
2023/09/15 04:37:41;;;;;;;;;;;;;;;;;;5109552;27;19916;-68
2023/09/15 04:43:48;;;;;;;;;;;;;;;;;;5109217;27;19922;-70
2023/09/15 04:46:14;;;;;;;;;;;;;;;;;;5109682;28;19912;-70
2023/09/15 04:48:40;;;;;;;;;;;;;;;;;;5108577;28;20328;-71
2023/09/15 04:53:15;;;;;;;;;;;;;;;;;;5110978;27;20388;-69
2023/09/15 04:56:19;;;;;;;;;;;;;;;;;;5091416;28;20295;-68
2023/09/15 04:59:46;;;;;;;;;;;;;;;;;;5153362;27;20092;-68
2023/09/15 05:05:45;;;;;;;;;;;;;;;;;;5111508;27;19916;-68
2023/09/15 05:08:11;;;;;;;;;;;;;;;;;;5111682;28;19912;-68
2023/09/15 05:12:31;;;;;;;;;;;;;;;;;;5091168;27;19916;-70
2023/09/15 05:14:57;;;;;;;;;;;;;;;;;;5096231;28;19934;-70
2023/09/15 05:17:23;;;;;;;;;;;;;;;;;;5108469;28;19908;-68
2023/09/15 05:22:37;;;;;;;;;;;;;;;;;;5130847;27;20025;-70
2023/09/15 05:25:04;;;;;;;;;;;;;;;;;;5122171;28;20081;-66
2023/09/15 05:27:38;;;;;;;;;;;;;;;;;;5092398;27;20410;-66
2023/09/15 05:30:04;;;;;;;;;;;;;;;;;;5086122;28;19912;-67
2023/09/15 05:35:00;;;;;;;;;;;;;;;;;;5088848;27;19913;-65
2023/09/15 05:39:33;;;;;;;;;;;;;;;;;;5108139;27;19920;-68
2023/09/15 05:42:14;;;;;;;;;;;;;;;;;;5113113;27;19924;-67
2023/09/15 05:44:40;;;;;;;;;;;;;;;;;;5112731;27;20002;-67
2023/09/15 05:47:06;;;;;;;;;;;;;;;;;;5108258;28;20008;-65
2023/09/15 05:49:32;;;;;;;;;;;;;;;;;;5114306;28;19916;-66
2023/09/15 05:51:58;;;;;;;;;;;;;;;;;;5112982;28;19915;-66
2023/09/15 05:54:26;;;;;;;;;;;;;;;;;;5112366;28;19916;-67
2023/09/15 05:56:52;;;;;;;;;;;;;;;;;;5108755;28;19908;-66
2023/09/15 05:59:18;;;;;;;;;;;;;;;;;;5108772;28;19995;-66
2023/09/15 06:01:56;;;;;;;;;;;;;;;;;;5095740;27;20282;-65
2023/09/15 06:04:22;;;;;;;;;;;;;;;;;;5053640;28;19924;-65
2023/09/15 06:06:48;;;;;;;;;;;;;;;;;;5048920;28;19920;-66
2023/09/15 06:09:14;;;;;;;;;;;;;;;;;;5049897;28;19959;-65
2023/09/15 06:12:06;;;;;;;;;;;;;;;;;;5113153;27;19916;-65
2023/09/15 06:14:35;;;;;;;;;;;;;;;;;;5092946;28;20391;-66
2023/09/15 06:18:25;;;;;;;;;;;;;;;;;;5087152;27;20307;-64
2023/09/15 06:20:56;;;;;;;;;;;;;;;;;;5091203;28;19914;-65
2023/09/15 06:23:22;;;;;;;;;;;;;;;;;;5088464;28;20390;-65
2023/09/15 06:26:05;;;;;;;;;;;;;;;;;;5147215;27;19957;-64
2023/09/15 06:28:31;;;;;;;;;;;;;;;;;;5112395;28;20411;-66
2023/09/15 06:30:57;;;;;;;;;;;;;;;;;;5129382;28;19930;-66
2023/09/15 06:33:23;;;;;;;;;;;;;;;;;;5112144;28;19989;-68
2023/09/15 06:38:06;;;;;;;;;;;;;;;;;;5108011;27;19920;-63
2023/09/15 06:40:51;;;;;;;;;;;;;;;;;;5114440;27;19916;-64
2023/09/15 06:43:17;;;;;;;;;;;;;;;;;;5108911;28;19919;-63
2023/09/15 06:46:57;;;;;;;;;;;;;;;;;;5113431;27;19927;-64
2023/09/15 06:49:22;;;;;;;;;;;;;;;;;;5126276;28;19911;-65
2023/09/15 06:51:49;;;;;;;;;;;;;;;;;;5108772;28;19912;-65
2023/09/15 06:56:42;;;;;;;;;;;;;;;;;;5060962;27;19928;-65
2023/09/15 06:59:09;;;;;;;;;;;;;;;;;;5058808;28;19913;-65
2023/09/15 07:01:35;;;;;;;;;;;;;;;;;;5055374;28;19963;-64
2023/09/15 07:06:30;;;;;;;;;;;;;;;;;;5106899;27;19926;-66
2023/09/15 07:10:16;;;;;;;;;;;;;;;;;;5087179;27;19924;-66
2023/09/15 07:12:42;;;;;;;;;;;;;;;;;;5088233;28;19934;-66
2023/09/15 07:15:08;;;;;;;;;;;;;;;;;;5088047;28;19966;-68
2023/09/15 07:17:34;;;;;;;;;;;;;;;;;;5085992;28;19936;-67
2023/09/15 07:20:00;;;;;;;;;;;;;;;;;;5085140;28;19912;-66
2023/09/15 07:22:27;;;;;;;;;;;;;;;;;;5093449;28;19918;-66
2023/09/15 07:24:53;;;;;;;;;;;;;;;;;;5071210;28;19962;-67
2023/09/15 07:27:19;;;;;;;;;;;;;;;;;;5079686;28;20356;-63
2023/09/15 07:29:45;;;;;;;;;;;;;;;;;;5072250;28;20495;-65
2023/09/15 07:32:11;;;;;;;;;;;;;;;;;;5085175;28;19908;-64
2023/09/15 07:34:37;;;;;;;;;;;;;;;;;;5088435;28;19981;-67
2023/09/15 07:37:05;;;;;;;;;;;;;;;;;;5085794;28;20360;-66
2023/09/15 07:39:31;;;;;;;;;;;;;;;;;;5099904;28;19912;-66
2023/09/15 07:41:57;;;;;;;;;;;;;;;;;;5084003;28;19919;-67
2023/09/15 07:44:29;;;;;;;;;;;;;;;;;;5083827;28;19923;-68
2023/09/15 07:48:56;;;;;;;;;;;;;;;;;;5107415;27;19973;-67
2023/09/15 07:51:23;;;;;;;;;;;;;;;;;;5106436;28;20381;-66
2023/09/15 07:55:20;;;;;;;;;;;;;;;;;;5107770;27;19920;-65
2023/09/15 07:57:46;;;;;;;;;;;;;;;;;;5106695;28;19963;-66
2023/09/15 08:00:12;;;;;;;;;;;;;;;;;;5089115;28;19965;-65
2023/09/15 08:02:38;;;;;;;;;;;;;;;;;;5089241;28;19916;-65
2023/09/15 08:05:04;;;;;;;;;;;;;;;;;;5081751;28;19978;-65
2023/09/15 08:09:52;;;;;;;;;;;;;;;;;;5102454;27;19926;-65
2023/09/15 08:12:19;;;;;;;;;;;;;;;;;;5118628;28;19966;-65
2023/09/15 08:14:45;;;;;;;;;;;;;;;;;;5099388;28;19947;-64
2023/09/15 08:19:07;;;;;;;;;;;;;;;;;;5105970;27;19920;-65
2023/09/15 08:21:33;;;;;;;;;;;;;;;;;;5092553;28;19922;-65
2023/09/15 08:23:59;;;;;;;;;;;;;;;;;;5087752;28;19916;-64
2023/09/15 08:28:08;;;;;;;;;;;;;;;;;;5104530;27;19920;-65
2023/09/15 08:30:50;;;;;;;;;;;;;;;;;;5086272;27;19919;-65
2023/09/15 08:33:16;;;;;;;;;;;;;;;;;;5077363;28;19978;-70
2023/09/15 08:35:43;;;;;;;;;;;;;;;;;;5086631;28;19912;-69
2023/09/15 08:38:09;;;;;;;;;;;;;;;;;;5088762;28;19920;-68
2023/09/15 08:40:37;;;;;;;;;;;;;;;;;;5089108;28;20392;-70
2023/09/15 08:43:03;;;;;;;;;;;;;;;;;;5093278;28;19919;-70
2023/09/15 08:45:29;;;;;;;;;;;;;;;;;;5091052;28;19916;-68
2023/09/15 08:47:55;;;;;;;;;;;;;;;;;;5081723;28;19913;-69
2023/09/15 08:50:21;;;;;;;;;;;;;;;;;;5082535;28;19950;-69
2023/09/15 08:52:47;;;;;;;;;;;;;;;;;;5081118;28;19931;-70
2023/09/15 08:55:13;;;;;;;;;;;;;;;;;;5083340;28;19917;-70
2023/09/15 08:57:39;;;;;;;;;;;;;;;;;;5084208;28;20330;-69
2023/09/15 09:00:08;;;;;;;;;;;;;;;;;;5084208;28;19913;-69
2023/09/15 09:04:56;;;;;;;;;;;;;;;;;;5104404;27;19918;-68
2023/09/15 09:07:22;;;;;;;;;;;;;;;;;;5104479;28;20196;-68
2023/09/15 09:09:48;;;;;;;;;;;;;;;;;;5104428;28;19916;-68
2023/09/15 09:12:14;;;;;;;;;;;;;;;;;;5098140;28;20381;-68
2023/09/15 09:14:40;;;;;;;;;;;;;;;;;;5108195;28;19918;-67
2023/09/15 09:17:07;;;;;;;;;;;;;;;;;;5121135;28;19988;-68
2023/09/15 09:19:33;;;;;;;;;;;;;;;;;;5108680;28;19919;-69
2023/09/15 09:21:59;;;;;;;;;;;;;;;;;;5104751;28;19912;-68
2023/09/15 09:24:25;;;;;;;;;;;;;;;;;;5106983;28;20023;-69
2023/09/15 09:26:51;;;;;;;;;;;;;;;;;;5102919;27;19919;-69
2023/09/15 09:29:17;;;;;;;;;;;;;;;;;;5090633;28;19981;-69
2023/09/15 09:31:43;;;;;;;;;;;;;;;;;;5110773;27;19951;-68
2023/09/15 09:34:12;;;;;;;;;;;;;;;;;;5096856;28;20384;-68
2023/09/15 09:36:38;;;;;;;;;;;;;;;;;;5104878;28;19916;-69
2023/09/15 09:39:04;;;;;;;;;;;;;;;;;;5093087;28;19965;-68
2023/09/15 09:41:30;;;;;;;;;;;;;;;;;;5103780;28;20458;-68
2023/09/15 09:43:56;;;;;;;;;;;;;;;;;;5125204;28;19984;-67
2023/09/15 09:46:22;;;;;;;;;;;;;;;;;;5105966;28;19916;-68
2023/09/15 09:48:48;;;;;;;;;;;;;;;;;;5104445;28;19912;-68
2023/09/15 09:51:14;;;;;;;;;;;;;;;;;;5108369;28;19916;-68
2023/09/15 09:53:40;;;;;;;;;;;;;;;;;;5113054;28;19919;-69
2023/09/15 09:56:05;;;;;;;;;;;;;;;;;;5099713;28;19922;-68
2023/09/15 09:58:31;;;;;;;;;;;;;;;;;;5105116;28;19912;-69
2023/09/15 10:00:58;;;;;;;;;;;;;;;;;;5112826;28;19951;-71
2023/09/15 10:03:24;;;;;;;;;;;;;;;;;;5103498;28;19924;-69
2023/09/15 10:05:50;;;;;;;;;;;;;;;;;;5104053;28;19916;-68
2023/09/15 10:08:16;;;;;;;;;;;;;;;;;;5108447;28;19918;-70
2023/09/15 10:10:43;;;;;;;;;;;;;;;;;;5109861;28;19919;-71
2023/09/15 10:13:09;;;;;;;;;;;;;;;;;;5112987;28;20031;-72
2023/09/15 10:15:35;;;;;;;;;;;;;;;;;;5086362;28;19945;-72
2023/09/15 10:18:01;;;;;;;;;;;;;;;;;;5117997;27;19919;-67
2023/09/15 10:20:27;;;;;;;;;;;;;;;;;;5102245;28;19919;-68
2023/09/15 10:22:54;;;;;;;;;;;;;;;;;;5092833;28;20372;-68
2023/09/15 10:25:21;;;;;;;;;;;;;;;;;;5076775;28;19917;-67
2023/09/15 10:27:47;;;;;;;;;;;;;;;;;;5082115;28;19977;-68
2023/09/15 10:30:13;;;;;;;;;;;;;;;;;;5090602;28;20368;-69
2023/09/15 10:32:39;;;;;;;;;;;;;;;;;;5091282;28;19908;-67
2023/09/15 10:35:05;;;;;;;;;;;;;;;;;;5091464;28;19908;-68
2023/09/15 10:37:33;;;;;;;;;;;;;;;;;;5089321;28;20425;-68
2023/09/15 10:39:59;;;;;;;;;;;;;;;;;;5087433;28;19965;-70
2023/09/15 10:42:25;;;;;;;;;;;;;;;;;;5090710;28;19913;-70
2023/09/15 10:44:51;;;;;;;;;;;;;;;;;;5092936;28;19927;-70
2023/09/15 10:47:19;;;;;;;;;;;;;;;;;;5087213;28;19912;-70
2023/09/15 10:49:45;;;;;;;;;;;;;;;;;;5093187;28;19912;-70
2023/09/15 10:52:11;;;;;;;;;;;;;;;;;;5093596;28;19916;-69
2023/09/15 10:54:38;;;;;;;;;;;;;;;;;;5093161;28;20398;-72
2023/09/15 10:57:04;;;;;;;;;;;;;;;;;;5092593;28;19950;-70
2023/09/15 10:59:30;;;;;;;;;;;;;;;;;;5092215;28;19948;-70
2023/09/15 11:01:55;;;;;;;;;;;;;;;;;;5091542;28;20280;-70
2023/09/15 11:04:22;;;;;;;;;;;;;;;;;;5093965;28;19919;-70
2023/09/15 11:06:48;;;;;;;;;;;;;;;;;;5093499;28;20007;-70
2023/09/15 11:09:14;;;;;;;;;;;;;;;;;;5093450;28;19908;-70
2023/09/15 11:11:40;;;;;;;;;;;;;;;;;;5092487;28;19953;-70
2023/09/15 11:14:06;;;;;;;;;;;;;;;;;;5093544;28;19973;-70
2023/09/15 11:16:33;;;;;;;;;;;;;;;;;;5092575;28;19998;-70
2023/09/15 11:18:59;;;;;;;;;;;;;;;;;;5092974;28;19919;-68
2023/09/15 11:21:25;;;;;;;;;;;;;;;;;;5092072;28;19908;-68
2023/09/15 11:23:51;;;;;;;;;;;;;;;;;;5091275;28;19931;-69
2023/09/15 11:26:17;;;;;;;;;;;;;;;;;;5091370;28;19916;-69
2023/09/15 11:28:43;;;;;;;;;;;;;;;;;;5092169;28;20003;-69
2023/09/15 11:31:09;;;;;;;;;;;;;;;;;;5092610;28;19931;-69
2023/09/15 11:33:35;;;;;;;;;;;;;;;;;;5091887;28;20011;-70
2023/09/15 11:36:01;;;;;;;;;;;;;;;;;;5092318;28;19908;-70
2023/09/15 11:38:27;;;;;;;;;;;;;;;;;;5093380;28;20399;-70
2023/09/15 11:40:53;;;;;;;;;;;;;;;;;;5093825;28;19943;-70
2023/09/15 11:43:19;;;;;;;;;;;;;;;;;;5094296;28;19951;-70
2023/09/15 11:45:45;;;;;;;;;;;;;;;;;;5092467;28;20322;-70
2023/09/15 11:48:12;;;;;;;;;;;;;;;;;;5094408;28;19912;-70
2023/09/15 11:50:38;;;;;;;;;;;;;;;;;;5094158;28;19908;-70
2023/09/15 11:53:04;;;;;;;;;;;;;;;;;;5093391;28;19915;-69
2023/09/15 11:55:30;;;;;;;;;;;;;;;;;;5094121;28;19915;-69
2023/09/15 11:57:56;;;;;;;;;;;;;;;;;;5093580;28;19919;-70
2023/09/15 12:00:22;;;;;;;;;;;;;;;;;;5093657;28;19908;-69
2023/09/15 12:02:48;;;;;;;;;;;;;;;;;;5092734;28;20339;-70
2023/09/15 12:05:14;;;;;;;;;;;;;;;;;;5094134;28;19907;-69
2023/09/15 12:07:40;;;;;;;;;;;;;;;;;;5093769;28;19916;-69
2023/09/15 12:10:06;;;;;;;;;;;;;;;;;;5093917;28;19912;-70
2023/09/15 12:12:32;;;;;;;;;;;;;;;;;;5093806;28;20376;-70
2023/09/15 12:15:01;;;;;;;;;;;;;;;;;;5093434;28;19999;-69
2023/09/15 12:17:27;;;;;;;;;;;;;;;;;;5093907;28;19908;-69
2023/09/15 12:19:53;;;;;;;;;;;;;;;;;;5093885;28;19935;-69
2023/09/15 12:22:19;;;;;;;;;;;;;;;;;;5093473;28;19912;-69
2023/09/15 12:24:45;;;;;;;;;;;;;;;;;;5090738;28;19916;-71
2023/09/15 12:27:11;;;;;;;;;;;;;;;;;;5090510;28;19916;-71
2023/09/15 12:29:37;;;;;;;;;;;;;;;;;;5090468;28;19959;-68
2023/09/15 12:32:04;;;;;;;;;;;;;;;;;;5090904;28;19915;-68
2023/09/15 12:54:23;;;;;;;;;;;;;;;;;;5071011;28;20404;-75
2023/09/15 12:56:53;;;;;;;;;;;;;;;;;;5070376;28;19995;-75
2023/09/15 12:59:19;;;;;;;;;;;;;;;;;;5069621;28;19909;-76
2023/09/15 13:01:45;;;;;;;;;;;;;;;;;;5070582;28;20396;-77
2023/09/15 13:04:10;;;;;;;;;;;;;;;;;;5068560;28;19962;-76
2023/09/15 13:06:36;;;;;;;;;;;;;;;;;;5070366;28;19954;-76
2023/09/15 13:09:04;;;;;;;;;;;;;;;;;;5070240;28;20003;-76
2023/09/15 13:11:31;;;;;;;;;;;;;;;;;;5068802;28;19909;-74
2023/09/15 13:13:57;;;;;;;;;;;;;;;;;;5068661;28;19942;-76
2023/09/15 13:16:23;;;;;;;;;;;;;;;;;;5068040;28;19920;-76
2023/09/15 13:18:48;;;;;;;;;;;;;;;;;;5066742;28;20313;-75
2023/09/15 13:21:14;;;;;;;;;;;;;;;;;;5067498;28;19940;-76
2023/09/15 13:23:40;;;;;;;;;;;;;;;;;;5067430;28;20008;-75
2023/09/15 13:26:06;;;;;;;;;;;;;;;;;;5066990;28;20359;-74
2023/09/15 13:28:33;;;;;;;;;;;;;;;;;;5068186;28;20067;-75
2023/09/15 13:31:00;;;;;;;;;;;;;;;;;;5067718;28;19913;-75
2023/09/15 13:33:26;;;;;;;;;;;;;;;;;;5069559;28;19909;-75
2023/09/15 13:35:52;;;;;;;;;;;;;;;;;;5070008;28;19908;-75
2023/09/15 13:38:18;;;;;;;;;;;;;;;;;;5069917;28;19913;-75
2023/09/15 13:40:44;;;;;;;;;;;;;;;;;;5069471;28;19909;-75
2023/09/15 13:43:10;;;;;;;;;;;;;;;;;;5069795;28;19923;-76
2023/09/15 13:45:36;;;;;;;;;;;;;;;;;;5069777;28;19955;-75
2023/09/15 13:48:02;;;;;;;;;;;;;;;;;;5069330;28;19909;-76
2023/09/15 13:50:28;;;;;;;;;;;;;;;;;;5068428;28;19909;-76
2023/09/15 13:52:54;;;;;;;;;;;;;;;;;;5069150;28;20343;-76
2023/09/15 13:55:20;;;;;;;;;;;;;;;;;;5056815;28;19908;-76
2023/09/15 13:57:45;;;;;;;;;;;;;;;;;;5056431;28;20285;-76
2023/09/15 14:00:11;;;;;;;;;;;;;;;;;;5054682;28;19955;-76
2023/09/15 14:02:38;;;;;;;;;;;;;;;;;;5056271;28;19917;-76
2023/09/15 14:05:04;;;;;;;;;;;;;;;;;;5056481;28;20370;-76
2023/09/15 14:07:30;;;;;;;;;;;;;;;;;;5056150;28;19916;-76
2023/09/15 14:09:56;;;;;;;;;;;;;;;;;;5056380;28;19916;-76
2023/09/15 14:12:22;;;;;;;;;;;;;;;;;;5056291;28;19913;-76
2023/09/15 14:14:48;;;;;;;;;;;;;;;;;;5055793;28;19968;-76
2023/09/15 14:17:14;;;;;;;;;;;;;;;;;;5056057;28;19951;-76
2023/09/15 14:19:40;;;;;;;;;;;;;;;;;;5055967;28;19912;-76
2023/09/15 14:22:06;;;;;;;;;;;;;;;;;;5054313;28;19917;-76
2023/09/15 14:24:34;;;;;;;;;;;;;;;;;;5054705;28;19955;-76
2023/09/15 14:27:03;;;;;;;;;;;;;;;;;;5055806;28;19909;-75
2023/09/15 14:29:29;;;;;;;;;;;;;;;;;;5055640;28;19996;-76
2023/09/15 14:31:55;;;;;;;;;;;;;;;;;;5055870;28;19940;-75
2023/09/15 14:34:21;;;;;;;;;;;;;;;;;;5054802;28;19908;-75
2023/09/15 14:36:47;;;;;;;;;;;;;;;;;;5055276;28;19962;-75
2023/09/15 14:39:16;;;;;;;;;;;;;;;;;;5054414;28;19956;-76
2023/09/15 14:41:42;;;;;;;;;;;;;;;;;;5055947;28;19920;-75
2023/09/15 14:44:08;;;;;;;;;;;;;;;;;;5053918;28;19909;-75
2023/09/15 14:46:34;;;;;;;;;;;;;;;;;;5055623;28;20058;-76
2023/09/15 14:49:00;;;;;;;;;;;;;;;;;;5055481;28;19909;-76
2023/09/15 14:51:26;;;;;;;;;;;;;;;;;;5055650;28;19909;-75
2023/09/15 14:53:52;;;;;;;;;;;;;;;;;;5055230;28;19921;-76
2023/09/15 14:56:18;;;;;;;;;;;;;;;;;;5053659;28;19909;-75
2023/09/15 14:58:45;;;;;;;;;;;;;;;;;;5055245;28;19908;-75
2023/09/15 15:01:11;;;;;;;;;;;;;;;;;;5054037;28;19909;-76
2023/09/15 15:03:37;;;;;;;;;;;;;;;;;;5054698;28;20320;-76
2023/09/15 15:06:03;;;;;;;;;;;;;;;;;;5054213;28;20288;-78
2023/09/15 15:08:28;;;;;;;;;;;;;;;;;;5053855;28;19909;-76
2023/09/15 15:10:54;;;;;;;;;;;;;;;;;;5054756;28;19962;-76
2023/09/15 15:13:20;;;;;;;;;;;;;;;;;;5055044;28;19952;-77
2023/09/15 15:15:46;;;;;;;;;;;;;;;;;;5053997;28;19920;-75
2023/09/15 15:18:12;;;;;;;;;;;;;;;;;;5054567;28;19952;-76
2023/09/15 15:20:38;;;;;;;;;;;;;;;;;;5055111;28;19920;-76
2023/09/15 15:23:04;;;;;;;;;;;;;;;;;;5054831;28;19921;-76
2023/09/15 15:25:30;;;;;;;;;;;;;;;;;;5054964;28;19913;-76
2023/09/15 15:27:56;;;;;;;;;;;;;;;;;;5054743;28;19915;-75
2023/09/15 15:30:24;;;;;;;;;;;;;;;;;;5054717;28;19913;-75
2023/09/15 15:32:50;;;;;;;;;;;;;;;;;;5054275;28;19908;-76
2023/09/15 15:35:16;;;;;;;;;;;;;;;;;;5054615;28;19959;-76
2023/09/15 15:37:42;;;;;;;;;;;;;;;;;;5054576;28;19936;-75
2023/09/15 15:40:07;;;;;;;;;;;;;;;;;;5054164;28;20004;-75
2023/09/15 15:42:33;;;;;;;;;;;;;;;;;;5054582;28;20336;-75
2023/09/15 15:45:00;;;;;;;;;;;;;;;;;;5054401;28;19931;-75
2023/09/15 15:47:25;;;;;;;;;;;;;;;;;;5054001;28;19912;-75
2023/09/15 15:49:51;;;;;;;;;;;;;;;;;;5054325;28;19962;-75
2023/09/15 15:52:17;;;;;;;;;;;;;;;;;;5052719;28;19917;-74
2023/09/15 15:54:46;;;;;;;;;;;;;;;;;;5054691;28;19915;-75
2023/09/15 15:57:12;;;;;;;;;;;;;;;;;;5052893;28;19909;-75
2023/09/15 15:59:38;;;;;;;;;;;;;;;;;;5053756;28;19909;-74
2023/09/15 16:02:04;;;;;;;;;;;;;;;;;;5054056;28;19960;-74
2023/09/15 16:04:30;;;;;;;;;;;;;;;;;;5054098;28;20405;-75
2023/09/15 16:06:55;;;;;;;;;;;;;;;;;;5053650;28;19955;-76
2023/09/15 16:09:21;;;;;;;;;;;;;;;;;;5053997;28;19909;-76
2023/09/15 16:11:48;;;;;;;;;;;;;;;;;;5052704;28;19916;-75
2023/09/15 16:14:15;;;;;;;;;;;;;;;;;;5053739;28;19940;-76
2023/09/15 16:16:40;;;;;;;;;;;;;;;;;;5053688;28;20358;-76
2023/09/15 16:19:06;;;;;;;;;;;;;;;;;;5053799;28;19909;-76
2023/09/15 16:21:35;;;;;;;;;;;;;;;;;;5053475;28;19971;-76
2023/09/15 16:24:01;;;;;;;;;;;;;;;;;;5053730;28;19916;-75
2023/09/15 16:26:27;;;;;;;;;;;;;;;;;;5053699;28;19962;-74
2023/09/15 16:28:53;;;;;;;;;;;;;;;;;;5053376;28;19959;-75
2023/09/15 16:31:19;;;;;;;;;;;;;;;;;;5053606;28;19916;-75
2023/09/15 16:33:47;;;;;;;;;;;;;;;;;;5053718;28;19908;-76
2023/09/15 16:36:13;;;;;;;;;;;;;;;;;;5053205;28;19967;-76
2023/09/15 16:38:39;;;;;;;;;;;;;;;;;;5053546;28;19915;-75
2023/09/15 16:41:05;;;;;;;;;;;;;;;;;;5053694;28;19909;-76
2023/09/15 16:43:32;;;;;;;;;;;;;;;;;;5053091;28;19917;-76
2023/09/15 16:45:58;;;;;;;;;;;;;;;;;;5052245;28;19909;-75
2023/09/15 16:48:24;;;;;;;;;;;;;;;;;;5053545;28;19909;-76
2023/09/15 16:50:50;;;;;;;;;;;;;;;;;;5051790;28;19999;-75
2023/09/15 16:55:15;;;;;;;;;;;;;;;;;;5111843;27;19916;-75
2023/09/15 16:57:41;;;;;;;;;;;;;;;;;;5111327;28;19912;-75
2023/09/15 17:00:08;;;;;;;;;;;;;;;;;;5111036;28;19915;-76
2023/09/15 17:02:34;;;;;;;;;;;;;;;;;;5111665;28;19942;-74
2023/09/15 17:05:00;;;;;;;;;;;;;;;;;;5111162;28;20283;-74
2023/09/15 17:07:26;;;;;;;;;;;;;;;;;;5110037;28;20264;-75
2023/09/15 17:09:52;;;;;;;;;;;;;;;;;;5110825;28;19916;-75
2023/09/15 17:12:18;;;;;;;;;;;;;;;;;;5111171;28;19915;-74
2023/09/15 17:14:44;;;;;;;;;;;;;;;;;;5109913;28;19916;-74
2023/09/15 17:17:10;;;;;;;;;;;;;;;;;;5110822;28;20254;-74
2023/09/15 17:19:36;;;;;;;;;;;;;;;;;;5109790;28;20423;-75
2023/09/15 17:22:02;;;;;;;;;;;;;;;;;;5111185;28;19912;-73
2023/09/15 17:26:46;;;;;;;;;;;;;;;;;;5111540;27;19916;-74
2023/09/15 17:29:12;;;;;;;;;;;;;;;;;;5111535;28;20427;-73
2023/09/15 17:32:48;;;;;;;;;;;;;;;;;;5111143;27;19919;-75
2023/09/15 17:35:14;;;;;;;;;;;;;;;;;;5111550;28;20002;-77
2023/09/15 17:37:40;;;;;;;;;;;;;;;;;;5110305;28;19908;-75
2023/09/15 17:42:03;;;;;;;;;;;;;;;;;;5112221;27;19922;-75
2023/09/15 17:44:29;;;;;;;;;;;;;;;;;;5111694;28;20006;-75
2023/09/15 17:46:55;;;;;;;;;;;;;;;;;;5111411;28;20363;-75
2023/09/15 17:49:21;;;;;;;;;;;;;;;;;;5111581;28;19961;-75
2023/09/15 17:51:47;;;;;;;;;;;;;;;;;;5111646;28;19962;-75
2023/09/15 17:54:13;;;;;;;;;;;;;;;;;;5109791;28;19955;-74
2023/09/15 17:56:39;;;;;;;;;;;;;;;;;;5111449;28;20360;-75
2023/09/15 17:59:05;;;;;;;;;;;;;;;;;;5110885;28;20291;-75
2023/09/15 18:01:32;;;;;;;;;;;;;;;;;;5109915;28;19960;-75
2023/09/15 18:04:59;;;;;;;;;;;;;;;;;;5111755;27;20301;-78
2023/09/15 18:07:55;;;;;;;;;;;;;;;;;;5152506;27;19976;-76
2023/09/15 18:10:21;;;;;;;;;;;;;;;;;;5134284;27;19918;-74
2023/09/15 18:12:47;;;;;;;;;;;;;;;;;;5152612;27;19946;-75
2023/09/15 18:15:14;;;;;;;;;;;;;;;;;;5152317;27;19911;-76
2023/09/15 18:17:42;;;;;;;;;;;;;;;;;;5134085;27;20427;-74
2023/09/15 18:20:09;;;;;;;;;;;;;;;;;;5133704;27;20002;-75
2023/09/15 18:22:35;;;;;;;;;;;;;;;;;;5134182;27;20030;-74
2023/09/15 18:25:05;;;;;;;;;;;;;;;;;;5133999;27;19946;-75
2023/09/15 18:28:05;;;;;;;;;;;;;;;;;;5111420;27;19916;-75
2023/09/15 18:31:21;;;;;;;;;;;;;;;;;;5111471;27;19912;-76
2023/09/15 18:36:47;;;;;;;;;;;;;;;;;;5112049;27;20379;-75
2023/09/15 18:39:13;;;;;;;;;;;;;;;;;;5111655;28;20006;-77
2023/09/15 18:41:39;;;;;;;;;;;;;;;;;;5111697;28;19931;-75
2023/09/15 18:44:05;;;;;;;;;;;;;;;;;;5111569;28;19919;-74
2023/09/15 18:46:31;;;;;;;;;;;;;;;;;;5111550;28;19908;-75
2023/09/15 18:48:59;;;;;;;;;;;;;;;;;;5111165;28;19915;-76
2023/09/15 18:51:25;;;;;;;;;;;;;;;;;;5111463;28;19935;-75
2023/09/15 18:53:51;;;;;;;;;;;;;;;;;;5111397;28;20359;-74
2023/09/15 18:56:17;;;;;;;;;;;;;;;;;;5109700;28;19920;-76
2023/09/15 18:58:43;;;;;;;;;;;;;;;;;;5110070;28;19999;-75
2023/09/15 19:01:09;;;;;;;;;;;;;;;;;;5111195;28;19915;-76
2023/09/15 19:03:35;;;;;;;;;;;;;;;;;;5110892;28;19912;-75
2023/09/15 19:06:01;;;;;;;;;;;;;;;;;;5111068;28;19912;-76
2023/09/15 19:08:27;;;;;;;;;;;;;;;;;;5111160;28;20314;-75